createdAt,value
2023-11-26T00:00:26.429Z,5.04
2023-11-26T00:02:53.065Z,5.03
2023-11-26T00:05:20.432Z,5.07
2023-11-26T00:07:47.039Z,5.09
2023-11-26T00:10:14.854Z,5.12
2023-11-26T00:12:41.323Z,5.13
2023-11-26T00:15:10.087Z,5.15
2023-11-26T00:17:36.865Z,5.18
2023-11-26T00:20:08.139Z,5.18
2023-11-26T00:22:37.402Z,5.14
2023-11-26T00:25:04.066Z,5.12
2023-11-26T00:27:30.571Z,5.11
2023-11-26T00:29:57.092Z,5.12
2023-11-26T00:32:24.260Z,5.14
2023-11-26T00:34:50.865Z,5.23
2023-11-26T00:37:17.394Z,5.33
2023-11-26T00:39:44.016Z,5.39
2023-11-26T00:42:10.553Z,5.46
2023-11-26T00:44:37.129Z,5.54
2023-11-26T00:47:03.777Z,5.59
2023-11-26T00:49:30.295Z,5.62
2023-11-26T00:51:56.722Z,5.65
2023-11-26T00:54:23.188Z,5.63
2023-11-26T00:56:50.614Z,5.65
2023-11-26T00:59:17.159Z,5.67
2023-11-26T01:01:43.699Z,5.70
2023-11-26T01:04:10.255Z,5.73
2023-11-26T01:06:36.764Z,5.76
2023-11-26T01:09:05.089Z,5.77
2023-11-26T01:11:31.750Z,5.79
2023-11-26T01:13:58.927Z,5.77
2023-11-26T01:16:25.420Z,5.76
2023-11-26T01:18:52.157Z,5.69
2023-11-26T01:21:19.175Z,5.68
2023-11-26T01:23:46.846Z,5.62
2023-11-26T01:26:13.609Z,5.58
2023-11-26T01:28:40.154Z,5.54
2023-11-26T01:31:10.399Z,5.46
2023-11-26T01:33:36.950Z,5.40
2023-11-26T01:36:07.434Z,5.33
2023-11-26T01:38:33.978Z,5.29
2023-11-26T01:41:00.825Z,5.23
2023-11-26T01:43:27.719Z,5.15
2023-11-26T01:46:06.071Z,5.16
2023-11-26T01:48:32.830Z,5.12
2023-11-26T01:50:59.501Z,5.07
2023-11-26T01:53:26.647Z,5.03
2023-11-26T01:55:53.236Z,5.01
2023-11-26T01:58:20.174Z,5.00
2023-11-26T02:00:47.064Z,4.97
2023-11-26T02:03:13.643Z,4.97
2023-11-26T02:05:40.238Z,4.96
2023-11-26T02:08:07.148Z,4.95
2023-11-26T02:10:34.795Z,4.93
2023-11-26T02:13:05.129Z,4.91
2023-11-26T02:15:32.401Z,4.92
2023-11-26T02:17:58.926Z,4.93
2023-11-26T02:20:25.649Z,4.93
2023-11-26T02:22:52.136Z,4.94
2023-11-26T02:25:18.792Z,4.93
2023-11-26T02:27:45.252Z,4.95
2023-11-26T02:30:12.967Z,4.96
2023-11-26T02:32:39.471Z,4.96
2023-11-26T02:35:06.213Z,4.96
2023-11-26T02:37:32.698Z,4.95
2023-11-26T02:39:59.124Z,4.95
2023-11-26T02:42:25.584Z,5.00
2023-11-26T02:44:52.077Z,4.95
2023-11-26T02:47:20.910Z,4.97
2023-11-26T02:49:48.382Z,4.97
2023-11-26T02:52:17.399Z,4.97
2023-11-26T02:54:43.878Z,4.96
2023-11-26T02:57:11.018Z,4.93
2023-11-26T02:59:37.670Z,4.93
2023-11-26T03:02:04.887Z,4.92
2023-11-26T03:04:31.566Z,4.90
2023-11-26T03:06:59.651Z,4.93
2023-11-26T03:09:35.289Z,4.95
2023-11-26T03:12:20.785Z,4.94
2023-11-26T03:14:47.644Z,4.93
2023-11-26T03:17:17.315Z,4.90
2023-11-26T03:19:46.517Z,4.93
2023-11-26T03:22:13.088Z,4.92
2023-11-26T03:24:39.537Z,4.90
2023-11-26T03:27:06.000Z,4.89
2023-11-26T03:29:32.674Z,4.82
2023-11-26T03:31:59.229Z,4.77
2023-11-26T03:34:29.391Z,4.75
2023-11-26T03:36:56.300Z,4.73
2023-11-26T03:39:22.926Z,4.70
2023-11-26T03:41:49.510Z,4.67
2023-11-26T03:44:16.043Z,4.64
2023-11-26T03:46:43.704Z,4.58
2023-11-26T03:49:10.220Z,4.58
2023-11-26T03:51:36.671Z,4.58
2023-11-26T03:54:03.181Z,4.60
2023-11-26T03:56:29.787Z,4.59
2023-11-26T03:58:56.906Z,4.60
2023-11-26T04:01:24.000Z,4.61
2023-11-26T04:03:50.597Z,4.66
2023-11-26T04:06:17.742Z,4.72
2023-11-26T04:08:44.229Z,4.75
2023-11-26T04:11:10.693Z,4.81
2023-11-26T04:13:38.610Z,4.86
2023-11-26T04:16:06.322Z,4.88
2023-11-26T04:18:33.089Z,4.92
2023-11-26T04:20:59.508Z,5.03
2023-11-26T04:23:26.019Z,5.13
2023-11-26T04:25:53.752Z,5.23
2023-11-26T04:28:20.878Z,5.32
2023-11-26T04:30:47.430Z,5.35
2023-11-26T04:33:13.958Z,5.42
2023-11-26T04:35:40.509Z,5.48
2023-11-26T04:38:08.173Z,5.48
2023-11-26T04:40:34.604Z,5.47
2023-11-26T04:43:01.052Z,5.42
2023-11-26T04:45:28.518Z,5.42
2023-11-26T04:47:55.016Z,5.37
2023-11-26T04:50:21.560Z,5.37
2023-11-26T04:52:48.911Z,5.37
2023-11-26T04:55:20.307Z,5.27
2023-11-26T04:57:50.302Z,5.34
2023-11-26T05:00:17.134Z,5.35
2023-11-26T05:02:44.365Z,5.33
2023-11-26T05:05:11.328Z,5.32
2023-11-26T05:07:41.013Z,5.31
2023-11-26T05:10:07.822Z,5.26
2023-11-26T05:12:35.886Z,5.27
2023-11-26T05:15:02.969Z,5.24
2023-11-26T05:17:29.477Z,5.23
2023-11-26T05:19:56.002Z,5.18
2023-11-26T05:22:22.532Z,5.20
2023-11-26T05:24:48.966Z,5.19
2023-11-26T05:27:15.407Z,5.21
2023-11-26T05:29:41.890Z,5.20
2023-11-26T05:32:08.430Z,5.21
2023-11-26T05:34:34.872Z,5.22
2023-11-26T05:37:02.133Z,5.23
2023-11-26T05:39:28.609Z,5.26
2023-11-26T05:41:55.049Z,5.26
2023-11-26T05:44:21.648Z,5.29
2023-11-26T05:46:48.242Z,5.28
2023-11-26T05:49:14.717Z,5.30
2023-11-26T05:51:41.751Z,5.32
2023-11-26T05:54:08.225Z,5.34
2023-11-26T05:56:34.725Z,5.35
2023-11-26T05:59:01.572Z,5.39
2023-11-26T06:01:28.043Z,5.41
2023-11-26T06:03:55.717Z,5.41
2023-11-26T06:06:22.267Z,5.41
2023-11-26T06:08:48.760Z,5.39
2023-11-26T06:11:15.212Z,5.37
2023-11-26T06:13:41.701Z,5.33
2023-11-26T06:16:08.591Z,5.39
2023-11-26T06:18:35.048Z,5.42
2023-11-26T06:21:01.532Z,5.43
2023-11-26T06:23:28.736Z,5.40
2023-11-26T06:25:55.233Z,5.45
2023-11-26T06:28:21.688Z,5.43
2023-11-26T06:30:48.216Z,5.42
2023-11-26T06:33:14.730Z,5.43
2023-11-26T06:35:41.239Z,5.44
2023-11-26T06:38:07.687Z,5.45
2023-11-26T06:40:34.177Z,5.46
2023-11-26T06:43:00.632Z,5.44
2023-11-26T06:45:27.307Z,5.45
2023-11-26T06:47:54.389Z,5.46
2023-11-26T06:50:21.968Z,5.47
2023-11-26T06:52:48.503Z,5.49
2023-11-26T06:55:15.387Z,5.54
2023-11-26T06:57:41.932Z,5.54
2023-11-26T07:00:10.275Z,5.55
2023-11-26T07:02:36.835Z,5.56
2023-11-26T07:05:03.667Z,5.57
2023-11-26T07:07:30.207Z,5.62
2023-11-26T07:09:58.162Z,5.63
2023-11-26T07:12:24.760Z,5.68
2023-11-26T07:14:51.947Z,5.71
2023-11-26T07:17:18.946Z,5.75
2023-11-26T07:19:45.650Z,5.78
2023-11-26T07:22:14.390Z,5.83
2023-11-26T07:24:41.815Z,5.79
2023-11-26T07:27:08.290Z,5.80
2023-11-26T07:29:35.704Z,5.80
2023-11-26T07:32:02.264Z,5.80
2023-11-26T07:34:28.735Z,5.83
2023-11-26T07:36:55.175Z,5.84
2023-11-26T07:39:21.617Z,5.88
2023-11-26T07:41:48.832Z,5.86
2023-11-26T07:44:15.408Z,5.89
2023-11-26T07:46:42.306Z,5.87
2023-11-26T07:49:09.869Z,5.89
2023-11-26T07:51:38.785Z,5.93
2023-11-26T07:54:05.381Z,5.93
2023-11-26T07:56:35.292Z,5.95
2023-11-26T07:59:07.651Z,5.97
2023-11-26T08:01:34.346Z,6.01
2023-11-26T08:04:01.180Z,6.04
2023-11-26T08:06:27.955Z,6.08
2023-11-26T08:08:54.790Z,6.10
2023-11-26T08:11:22.119Z,6.15
2023-11-26T08:13:48.612Z,6.22
2023-11-26T08:16:18.700Z,6.24
2023-11-26T08:18:45.716Z,6.27
2023-11-26T08:21:13.556Z,6.28
2023-11-26T08:23:42.396Z,6.27
2023-11-26T08:26:14.055Z,6.27
2023-11-26T08:28:41.898Z,6.29
2023-11-26T08:31:08.374Z,6.31
2023-11-26T08:33:40.407Z,6.36
2023-11-26T08:36:08.911Z,6.37
2023-11-26T08:38:39.565Z,6.41
2023-11-26T08:41:11.881Z,6.42
2023-11-26T08:43:40.801Z,6.50
2023-11-26T08:46:10.384Z,6.51
2023-11-26T08:48:37.451Z,6.52
2023-11-26T08:51:04.188Z,6.55
2023-11-26T08:53:31.101Z,6.60
2023-11-26T08:55:57.590Z,6.62
2023-11-26T08:58:24.069Z,6.64
2023-11-26T09:00:51.140Z,6.69
2023-11-26T09:03:17.775Z,6.65
2023-11-26T09:05:44.331Z,6.71
2023-11-26T09:08:10.891Z,6.79
2023-11-26T09:10:37.359Z,6.81
2023-11-26T09:13:04.839Z,6.83
2023-11-26T09:15:31.485Z,6.90
2023-11-26T09:17:59.364Z,6.89
2023-11-26T09:20:27.456Z,6.95
2023-11-26T09:22:53.946Z,6.96
2023-11-26T09:25:20.457Z,6.97
2023-11-26T09:27:46.966Z,7.01
2023-11-26T09:30:14.211Z,7.04
2023-11-26T09:32:42.438Z,7.01
2023-11-26T09:35:09.084Z,7.05
2023-11-26T09:37:35.597Z,7.08
2023-11-26T09:40:02.683Z,7.12
2023-11-26T09:42:29.668Z,7.16
2023-11-26T09:44:56.169Z,7.17
2023-11-26T09:47:23.280Z,7.22
2023-11-26T09:49:50.595Z,7.27
2023-11-26T09:52:21.048Z,7.31
2023-11-26T09:54:50.388Z,7.32
2023-11-26T09:57:16.891Z,7.33
2023-11-26T09:59:43.480Z,7.39
2023-11-26T10:02:13.600Z,7.41
2023-11-26T10:04:48.726Z,7.41
2023-11-26T10:07:16.282Z,7.43
2023-11-26T10:09:43.361Z,7.42
2023-11-26T10:12:10.233Z,7.50
2023-11-26T10:14:36.662Z,7.55
2023-11-26T10:17:13.033Z,7.55
2023-11-26T10:19:41.059Z,7.54
2023-11-26T10:22:07.757Z,7.54
2023-11-26T10:24:34.629Z,7.62
2023-11-26T10:27:01.293Z,7.67
2023-11-26T10:29:31.679Z,7.66
2023-11-26T10:32:05.102Z,7.71
2023-11-26T10:34:36.021Z,7.76
2023-11-26T10:37:04.261Z,7.82
2023-11-26T10:39:31.283Z,7.88
2023-11-26T10:41:59.247Z,7.85
2023-11-26T10:44:27.778Z,7.90
2023-11-26T10:46:56.219Z,7.95
2023-11-26T10:49:27.348Z,7.98
2023-11-26T10:52:17.018Z,8.04
2023-11-26T10:55:11.699Z,8.10
2023-11-26T10:57:42.793Z,8.09
2023-11-26T11:00:11.622Z,8.08
2023-11-26T11:02:38.271Z,8.15
2023-11-26T11:05:08.102Z,8.18
2023-11-26T11:07:35.532Z,8.27
2023-11-26T11:10:08.090Z,8.33
2023-11-26T11:12:58.761Z,8.42
2023-11-26T11:15:26.136Z,8.48
2023-11-26T11:17:53.046Z,8.55
2023-11-26T11:20:19.842Z,8.59
2023-11-26T11:22:47.767Z,8.63
2023-11-26T11:25:20.822Z,8.66
2023-11-26T11:28:00.879Z,8.66
2023-11-26T11:30:33.676Z,8.73
2023-11-26T11:33:09.903Z,8.75
2023-11-26T11:35:42.563Z,8.75
2023-11-26T11:38:13.329Z,8.77
2023-11-26T11:41:15.007Z,8.82
2023-11-26T11:43:44.617Z,8.85
2023-11-26T11:46:43.977Z,8.84
2023-11-26T11:49:10.830Z,8.63
2023-11-26T11:51:39.031Z,8.85
2023-11-26T11:54:22.926Z,8.86
2023-11-26T11:56:50.063Z,8.84
2023-11-26T11:59:17.034Z,8.89
2023-11-26T12:01:44.144Z,8.87
2023-11-26T12:04:13.300Z,8.88
2023-11-26T12:06:43.336Z,8.87
2023-11-26T12:09:11.759Z,8.86
2023-11-26T12:11:45.289Z,8.90
2023-11-26T12:14:11.926Z,8.93
2023-11-26T12:16:38.495Z,8.95
2023-11-26T12:19:07.186Z,8.93
2023-11-26T12:21:33.701Z,8.92
2023-11-26T12:24:00.240Z,8.88
2023-11-26T12:26:37.234Z,8.90
2023-11-26T12:29:03.721Z,8.94
2023-11-26T12:31:32.260Z,8.94
2023-11-26T12:33:58.791Z,8.92
2023-11-26T12:36:25.374Z,8.95
2023-11-26T12:38:52.117Z,8.95
2023-11-26T12:41:19.714Z,9.01
2023-11-26T12:43:46.692Z,9.04
2023-11-26T12:46:14.557Z,9.06
2023-11-26T12:48:41.899Z,9.08
2023-11-26T12:51:08.873Z,9.11
2023-11-26T12:53:36.222Z,9.10
2023-11-26T12:56:02.941Z,9.07
2023-11-26T12:58:29.447Z,9.13
2023-11-26T13:00:57.216Z,9.12
2023-11-26T13:03:24.552Z,9.18
2023-11-26T13:05:52.038Z,9.19
2023-11-26T13:08:22.516Z,9.20
2023-11-26T13:10:59.597Z,9.22
2023-11-26T13:13:30.662Z,9.19
2023-11-26T13:15:58.557Z,9.16
2023-11-26T13:18:30.026Z,9.21
2023-11-26T13:20:58.579Z,9.18
2023-11-26T13:23:25.969Z,9.16
2023-11-26T13:25:53.236Z,9.15
2023-11-26T13:28:21.177Z,9.10
2023-11-26T13:30:48.358Z,9.16
2023-11-26T13:33:15.682Z,9.15
2023-11-26T13:35:42.764Z,9.13
2023-11-26T13:38:09.728Z,9.12
2023-11-26T13:40:40.111Z,9.11
2023-11-26T13:43:07.454Z,9.12
2023-11-26T13:45:35.853Z,9.09
2023-11-26T13:48:11.015Z,9.09
2023-11-26T13:50:38.820Z,9.07
2023-11-26T13:53:10.732Z,9.10
2023-11-26T13:55:37.385Z,9.09
2023-11-26T13:58:04.719Z,9.08
2023-11-26T14:00:33.008Z,9.06
2023-11-26T14:03:01.113Z,9.06
2023-11-26T14:05:28.671Z,9.05
2023-11-26T14:07:55.258Z,8.99
2023-11-26T14:10:23.598Z,8.96
2023-11-26T14:12:52.313Z,8.99
2023-11-26T14:15:19.190Z,8.99
2023-11-26T14:17:47.110Z,8.95
2023-11-26T14:20:17.074Z,8.90
2023-11-26T14:22:45.240Z,8.89
2023-11-26T14:25:15.151Z,8.89
2023-11-26T14:27:45.954Z,8.85
2023-11-26T14:30:18.105Z,8.77
2023-11-26T14:32:48.054Z,8.78
2023-11-26T14:35:15.188Z,8.76
2023-11-26T14:37:41.956Z,8.76
2023-11-26T14:40:13.833Z,8.78
2023-11-26T14:42:44.597Z,8.71
2023-11-26T14:45:13.236Z,8.72
2023-11-26T14:47:45.922Z,8.67
2023-11-26T14:50:20.986Z,8.67
2023-11-26T14:52:47.686Z,8.67
2023-11-26T14:55:15.077Z,8.65
2023-11-26T14:57:42.785Z,8.63
2023-11-26T15:00:10.461Z,8.51
2023-11-26T15:02:37.627Z,8.55
2023-11-26T15:05:07.786Z,8.49
2023-11-26T15:07:34.539Z,8.51
2023-11-26T15:10:01.308Z,8.48
2023-11-26T15:12:28.132Z,8.46
2023-11-26T15:14:55.005Z,8.45
2023-11-26T15:17:21.606Z,8.42
2023-11-26T15:19:48.132Z,8.41
2023-11-26T15:22:14.654Z,8.43
2023-11-26T15:24:42.979Z,8.46
2023-11-26T15:27:10.447Z,8.47
2023-11-26T15:29:40.538Z,8.36
2023-11-26T15:32:10.178Z,8.37
2023-11-26T15:34:38.850Z,8.36
2023-11-26T15:37:05.601Z,8.35
2023-11-26T15:39:32.231Z,8.33
2023-11-26T15:42:00.173Z,8.32
2023-11-26T15:44:28.601Z,8.30
2023-11-26T15:46:56.073Z,8.29
2023-11-26T15:49:24.817Z,8.26
2023-11-26T15:51:51.399Z,8.22
2023-11-26T15:54:17.940Z,8.21
2023-11-26T15:56:44.686Z,8.22
2023-11-26T15:59:11.227Z,8.24
2023-11-26T16:01:37.941Z,8.23
2023-11-26T16:04:04.619Z,8.25
2023-11-26T16:06:31.401Z,8.26
2023-11-26T16:08:58.582Z,8.26
2023-11-26T16:11:25.210Z,8.27
2023-11-26T16:13:51.909Z,8.27
2023-11-26T16:16:19.800Z,8.26
2023-11-26T16:18:46.810Z,8.17
2023-11-26T16:21:15.968Z,8.22
2023-11-26T16:23:48.457Z,8.23
2023-11-26T16:26:14.866Z,8.21
2023-11-26T16:28:41.455Z,8.12
2023-11-26T16:31:09.970Z,8.02
2023-11-26T16:33:49.804Z,8.06
2023-11-26T16:36:17.936Z,8.10
2023-11-26T16:38:44.761Z,8.03
2023-11-26T16:41:14.907Z,8.06
2023-11-26T16:43:45.702Z,8.06
2023-11-26T16:46:12.316Z,8.03
2023-11-26T16:48:39.470Z,7.99
2023-11-26T16:51:06.320Z,7.97
2023-11-26T16:53:33.567Z,7.94
2023-11-26T16:56:00.721Z,7.90
2023-11-26T16:58:27.403Z,7.98
2023-11-26T17:00:54.482Z,8.01
2023-11-26T17:03:21.352Z,7.97
2023-11-26T17:05:48.118Z,7.97
2023-11-26T17:08:14.560Z,7.96
2023-11-26T17:10:41.145Z,7.94
2023-11-26T17:13:07.716Z,7.90
2023-11-26T17:15:34.414Z,7.86
2023-11-26T17:18:01.070Z,7.88
2023-11-26T17:20:27.632Z,7.82
2023-11-26T17:22:54.162Z,7.88
2023-11-26T17:25:20.591Z,7.89
2023-11-26T17:27:47.470Z,7.91
2023-11-26T17:30:14.770Z,7.93
2023-11-26T17:32:41.329Z,7.92
2023-11-26T17:35:08.363Z,7.92
2023-11-26T17:37:34.866Z,7.92
2023-11-26T17:40:01.446Z,7.89
2023-11-26T17:42:28.881Z,7.90
2023-11-26T17:44:55.629Z,7.92
2023-11-26T17:47:22.206Z,7.92
2023-11-26T17:49:48.657Z,7.93
2023-11-26T17:52:15.463Z,7.91
2023-11-26T17:54:42.035Z,7.90
2023-11-26T17:57:08.714Z,7.90
2023-11-26T17:59:36.176Z,7.85
2023-11-26T18:02:02.764Z,7.86
2023-11-26T18:04:29.983Z,7.82
2023-11-26T18:06:56.678Z,7.84
2023-11-26T18:09:23.210Z,7.81
2023-11-26T18:11:49.763Z,7.83
2023-11-26T18:14:16.676Z,7.82
2023-11-26T18:16:47.996Z,7.81
2023-11-26T18:19:15.805Z,7.81
2023-11-26T18:21:45.350Z,7.78
2023-11-26T18:24:11.913Z,7.74
2023-11-26T18:26:38.485Z,7.76
2023-11-26T18:29:07.244Z,7.76
2023-11-26T18:31:34.164Z,7.74
2023-11-26T18:34:00.721Z,7.72
2023-11-26T18:36:27.342Z,7.67
2023-11-26T18:38:53.817Z,7.66
2023-11-26T18:41:21.221Z,7.64
2023-11-26T18:43:48.081Z,7.65
2023-11-26T18:46:17.276Z,7.67
2023-11-26T18:48:44.039Z,7.61
2023-11-26T18:51:10.860Z,7.59
2023-11-26T18:53:37.386Z,7.57
2023-11-26T18:56:04.735Z,7.55
2023-11-26T18:58:31.347Z,7.50
2023-11-26T19:00:57.920Z,7.45
2023-11-26T19:03:24.465Z,7.48
2023-11-26T19:05:50.905Z,7.46
2023-11-26T19:08:17.363Z,7.45
2023-11-26T19:10:44.308Z,7.46
2023-11-26T19:13:10.877Z,7.51
2023-11-26T19:15:37.506Z,7.50
2023-11-26T19:18:06.827Z,7.46
2023-11-26T19:20:33.365Z,7.45
2023-11-26T19:22:59.932Z,7.45
2023-11-26T19:25:26.498Z,7.44
2023-11-26T19:27:53.103Z,7.43
2023-11-26T19:30:19.610Z,7.40
2023-11-26T19:32:46.148Z,7.42
2023-11-26T19:35:12.580Z,7.45
2023-11-26T19:37:43.008Z,7.44
2023-11-26T19:40:09.781Z,7.41
2023-11-26T19:42:36.264Z,7.40
2023-11-26T19:45:02.804Z,7.35
2023-11-26T19:47:29.370Z,7.34
2023-11-26T19:49:56.883Z,7.33
2023-11-26T19:52:23.380Z,7.35
2023-11-26T19:54:51.063Z,7.34
2023-11-26T19:57:18.427Z,7.35
2023-11-26T19:59:45.208Z,7.35
2023-11-26T20:02:11.828Z,7.31
2023-11-26T20:04:38.578Z,7.30
2023-11-26T20:07:05.806Z,7.24
2023-11-26T20:09:32.430Z,7.24
2023-11-26T20:11:58.921Z,7.18
2023-11-26T20:14:25.408Z,7.23
2023-11-26T20:16:53.237Z,7.18
2023-11-26T20:19:19.774Z,7.19
2023-11-26T20:21:46.329Z,7.18
2023-11-26T20:24:17.721Z,7.19
2023-11-26T20:26:44.232Z,7.17
2023-11-26T20:29:10.725Z,7.20
2023-11-26T20:31:37.371Z,7.13
2023-11-26T20:34:07.880Z,7.17
2023-11-26T20:36:34.809Z,7.15
2023-11-26T20:39:01.833Z,7.17
2023-11-26T20:41:29.532Z,7.18
2023-11-26T20:43:56.963Z,7.20
2023-11-26T20:46:24.469Z,7.19
2023-11-26T20:48:51.197Z,7.17
2023-11-26T20:51:21.913Z,7.10
2023-11-26T20:53:48.649Z,7.10
2023-11-26T20:56:28.218Z,7.08
2023-11-26T20:58:56.200Z,7.04
2023-11-26T21:01:23.966Z,7.10
2023-11-26T21:03:51.666Z,7.11
2023-11-26T21:06:19.331Z,7.14
2023-11-26T21:08:45.810Z,7.11
2023-11-26T21:11:13.677Z,7.06
2023-11-26T21:13:40.464Z,7.10
2023-11-26T21:16:10.758Z,7.09
2023-11-26T21:18:38.505Z,7.08
2023-11-26T21:21:05.077Z,7.03
2023-11-26T21:23:31.745Z,7.03
2023-11-26T21:25:58.216Z,7.07
2023-11-26T21:28:25.483Z,7.06
2023-11-26T21:30:52.117Z,7.09
2023-11-26T21:33:19.530Z,7.06
2023-11-26T21:35:46.080Z,7.06
2023-11-26T21:38:12.541Z,7.04
2023-11-26T21:40:42.143Z,7.03
2023-11-26T21:43:10.541Z,6.98
2023-11-26T21:45:37.069Z,6.96
2023-11-26T21:48:19.665Z,6.93
2023-11-26T21:50:46.814Z,6.91
2023-11-26T21:53:13.874Z,6.92
2023-11-26T21:55:40.341Z,6.89
2023-11-26T21:58:06.859Z,6.88
2023-11-26T22:00:33.484Z,6.91
2023-11-26T22:03:00.098Z,6.90
2023-11-26T22:05:26.646Z,6.86
2023-11-26T22:07:53.160Z,6.85
2023-11-26T22:10:19.676Z,6.75
2023-11-26T22:12:46.721Z,6.81
2023-11-26T22:15:13.365Z,6.77
2023-11-26T22:17:39.842Z,6.76
2023-11-26T22:20:07.097Z,6.74
2023-11-26T22:22:34.132Z,6.80
2023-11-26T22:25:04.727Z,6.81
2023-11-26T22:27:39.821Z,6.73
2023-11-26T22:30:09.201Z,6.77
2023-11-26T22:32:37.121Z,6.81
2023-11-26T22:35:03.757Z,6.78
2023-11-26T22:37:30.236Z,6.68
2023-11-26T22:39:56.775Z,6.68
2023-11-26T22:42:23.371Z,6.62
2023-11-26T22:44:49.876Z,6.59
2023-11-26T22:47:16.476Z,6.58
2023-11-26T22:49:44.049Z,6.61
2023-11-26T22:52:10.780Z,6.63
2023-11-26T22:54:37.312Z,6.62
2023-11-26T22:57:03.802Z,6.68
2023-11-26T22:59:30.326Z,6.65
2023-11-26T23:01:57.178Z,6.65
2023-11-26T23:04:23.872Z,6.63
2023-11-26T23:06:50.611Z,6.59
2023-11-26T23:09:18.522Z,6.67
2023-11-26T23:11:45.045Z,6.68
2023-11-26T23:14:11.477Z,6.68
2023-11-26T23:16:37.912Z,6.69
2023-11-26T23:19:05.004Z,6.68
2023-11-26T23:21:31.517Z,6.68
2023-11-26T23:23:58.004Z,6.70
2023-11-26T23:26:24.478Z,6.65
2023-11-26T23:28:51.269Z,6.63
2023-11-26T23:31:20.991Z,6.66
2023-11-26T23:33:48.543Z,6.62
2023-11-26T23:36:15.421Z,6.62
2023-11-26T23:38:43.972Z,6.61
2023-11-26T23:41:12.366Z,6.68
2023-11-26T23:43:39.967Z,6.69
2023-11-26T23:46:06.923Z,6.71
2023-11-26T23:48:33.452Z,6.67
2023-11-26T23:50:59.904Z,6.67
2023-11-26T23:53:26.373Z,6.69
2023-11-26T23:55:52.896Z,6.74
2023-11-26T23:58:19.388Z,6.68
